Terminal Aerodrome Forecast
Issued by NWS

Home | Current Version | Previous Version | Text Only | Print | Product List | Glossary Off
Versions: 1 2 3 4 5 6 7 8 9 10 11 12 13 14

000
FTUS43 KBIS 280956 AAA
TAFJMS
TAF AMD
KJMS 280956Z 2810/2906 14012KT P6SM SCT045
     FM281500 26015G25KT P6SM SCT050
     FM282100 25025G40KT P6SM SCT060
     FM290200 26020G30KT P6SM BKN060=

USA.gov is the U.S. government's official web portal to all federal, state and local government web resources and services.